Time;durP1;ratioP1;P1;durP2;ratioP2;P2;SDS_P1;SDS_P2;PMS_P1;PMS_P2;Temp;Humidity;BMP_temperature;BMP_pressure;BME280_temperature;BME280_humidity;BME280_pressure;Samples;Min_cycle;Max_cycle;Signal;HPM_P1;HPM_P2
2023/01/18 00:00:13;;;;;;;1.07;1.07;;;;;0.40;92970.00;;;;5032706;28;20225;-69
2023/01/18 00:02:40;;;;;;;1.00;1.00;;;;;0.40;92964.00;;;;5032787;28;20195;-70
2023/01/18 00:05:08;;;;;;;1.53;1.43;;;;;0.50;92970.00;;;;5033148;28;20203;-70
2023/01/18 00:07:35;;;;;;;1.00;1.00;;;;;0.50;92966.00;;;;5033021;28;20199;-70
2023/01/18 00:10:03;;;;;;;1.13;1.13;;;;;0.50;92973.00;;;;5032575;28;20273;-69
2023/01/18 00:12:30;;;;;;;0.90;0.90;;;;;0.50;92967.00;;;;5032811;28;20699;-71
2023/01/18 00:14:59;;;;;;;0.97;0.97;;;;;0.50;92969.00;;;;5033080;28;20195;-70
2023/01/18 00:17:26;;;;;;;1.40;1.37;;;;;0.50;92961.00;;;;5033106;28;20199;-70
2023/01/18 00:19:53;;;;;;;19.80;15.90;;;;;0.50;92953.00;;;;5033253;28;20615;-70
2023/01/18 00:22:21;;;;;;;11.10;7.90;;;;;0.50;92970.00;;;;5032773;28;20196;-72
2023/01/18 00:24:48;;;;;;;4.07;2.80;;;;;0.60;92961.00;;;;5032767;28;20375;-70
2023/01/18 00:27:15;;;;;;;1.63;1.53;;;;;0.60;92956.00;;;;5032994;28;20196;-70
2023/01/18 00:29:43;;;;;;;0.90;0.90;;;;;0.50;92962.00;;;;5033412;28;20215;-70
2023/01/18 00:32:13;;;;;;;1.00;1.00;;;;;0.60;92961.00;;;;5032733;28;20199;-70
2023/01/18 00:34:40;;;;;;;1.23;1.10;;;;;0.50;92964.00;;;;5032622;28;20206;-70
2023/01/18 00:37:07;;;;;;;0.90;0.90;;;;;0.40;92968.00;;;;5032697;28;20230;-69
2023/01/18 00:39:35;;;;;;;1.87;1.77;;;;;0.40;92956.00;;;;5032512;28;20200;-69
2023/01/18 00:44:47;;;;;;;1.00;1.00;;;;;0.40;92967.00;;;;5032673;28;20180;-69
2023/01/18 00:47:16;;;;;;;1.73;1.63;;;;;0.40;92963.00;;;;5032626;28;20659;-69
2023/01/18 00:49:43;;;;;;;2.23;2.03;;;;;0.20;92960.00;;;;5034352;28;20758;-69
2023/01/18 00:52:10;;;;;;;1.00;1.00;;;;;0.10;92960.00;;;;5036290;28;20231;-70
2023/01/18 00:54:38;;;;;;;1.10;1.00;;;;;0.10;92962.00;;;;5036628;28;20202;-69
2023/01/18 00:57:05;;;;;;;1.53;1.43;;;;;0.10;92967.00;;;;5036592;28;20249;-69
2023/01/18 00:59:32;;;;;;;1.10;1.10;;;;;0.10;92965.00;;;;5036505;28;20206;-69
2023/01/18 01:02:00;;;;;;;1.10;1.10;;;;;0.10;92969.00;;;;5036590;28;20202;-70
2023/01/18 01:07:13;;;;;;;2.67;1.73;;;;;0.30;92976.00;;;;5036238;28;20190;-70
2023/01/18 01:09:43;;;;;;;1.00;0.93;;;;;0.30;92969.00;;;;5035758;28;20194;-69
2023/01/18 01:26:06;;;;;;;0.90;0.90;;;;;0.30;92995.00;;;;5035642;28;20702;-69
2023/01/18 01:28:35;;;;;;;1.40;1.30;;;;;0.40;92987.00;;;;5035644;28;20213;-71
2023/01/18 01:31:04;;;;;;;1.20;1.20;;;;;0.40;92990.00;;;;5036031;28;20214;-70
2023/01/18 01:33:32;;;;;;;0.90;0.90;;;;;0.40;92994.00;;;;5035489;28;20194;-69
2023/01/18 01:36:03;;;;;;;1.37;1.30;;;;;0.40;93009.00;;;;5036054;28;20274;-70
2023/01/18 01:38:31;;;;;;;0.87;0.87;;;;;0.50;92999.00;;;;5035459;28;20190;-69
2023/01/18 01:41:00;;;;;;;2.20;1.00;;;;;0.50;93000.00;;;;5035264;28;20254;-70
2023/01/18 01:43:43;;;;;;;0.90;0.90;;;;;0.50;92993.00;;;;5035636;28;20663;-70
2023/01/18 01:46:23;;;;;;;0.80;0.80;;;;;0.50;93001.00;;;;5035278;28;20181;-69
2023/01/18 01:48:55;;;;;;;0.97;0.97;;;;;0.40;93008.00;;;;5035558;28;20181;-70
2023/01/18 01:51:24;;;;;;;1.10;1.10;;;;;0.40;93001.00;;;;5035145;28;20212;-69
2023/01/18 01:53:52;;;;;;;1.63;1.53;;;;;0.40;93009.00;;;;5035183;28;20194;-69
2023/01/18 01:56:21;;;;;;;1.23;1.23;;;;;0.30;93016.00;;;;5035158;28;20203;-70
2023/01/18 01:58:55;;;;;;;0.97;0.97;;;;;0.30;93009.00;;;;5017290;28;20713;-70
2023/01/18 02:01:23;;;;;;;1.00;1.00;;;;;0.30;93004.00;;;;5034683;28;20508;-69
2023/01/18 02:03:50;;;;;;;0.90;0.90;;;;;0.30;93010.00;;;;5035200;28;20597;-70
2023/01/18 02:06:30;;;;;;;1.10;1.10;;;;;0.30;93005.00;;;;5035147;28;20670;-68
2023/01/18 02:08:59;;;;;;;0.97;0.97;;;;;0.30;93005.00;;;;5035164;28;20187;-68
2023/01/18 02:11:28;;;;;;;1.43;1.33;;;;;0.30;93016.00;;;;5034622;28;20221;-69
2023/01/18 02:13:56;;;;;;;0.80;0.80;;;;;0.30;93016.00;;;;5034789;28;20612;-69
2023/01/18 02:16:38;;;;;;;1.87;1.77;;;;;0.30;93018.00;;;;5034918;28;20260;-69
2023/01/18 02:19:30;;;;;;;1.10;1.00;;;;;0.30;93011.00;;;;5034746;28;20188;-70
2023/01/18 02:22:03;;;;;;;1.87;1.77;;;;;0.40;93021.00;;;;5034798;28;20204;-70
2023/01/18 02:24:59;;;;;;;1.00;1.00;;;;;0.40;93022.00;;;;5034631;28;20191;-70
2023/01/18 02:27:30;;;;;;;1.37;1.27;;;;;0.40;93026.00;;;;5035038;28;20192;-69
2023/01/18 02:30:09;;;;;;;2.00;1.80;;;;;0.40;93040.00;;;;5034480;28;20238;-70
2023/01/18 02:32:55;;;;;;;1.00;1.00;;;;;0.40;93046.00;;;;5033179;28;20544;-69
2023/01/18 02:35:33;;;;;;;1.50;1.40;;;;;0.40;93048.00;;;;5034385;28;20183;-69
2023/01/18 02:38:09;;;;;;;0.90;0.90;;;;;0.40;93040.00;;;;5034946;28;20626;-70
2023/01/18 02:40:49;;;;;;;1.10;1.10;;;;;0.40;93043.00;;;;5034497;28;20326;-70
2023/01/18 02:48:53;;;;;;;2.00;1.80;;;;;0.30;93052.00;;;;5034366;28;20183;-69
2023/01/18 02:51:20;;;;;;;1.10;1.10;;;;;0.30;93050.00;;;;5033932;28;20222;-69
2023/01/18 02:53:49;;;;;;;0.90;0.90;;;;;0.40;93045.00;;;;5034144;28;20202;-71
2023/01/18 02:56:21;;;;;;;1.33;1.27;;;;;0.40;93048.00;;;;5034160;28;20245;-70
2023/01/18 02:58:52;;;;;;;1.40;1.40;;;;;0.40;93058.00;;;;5016408;28;20670;-71
2023/01/18 03:01:28;;;;;;;0.90;0.90;;;;;0.40;93058.00;;;;5034210;28;20679;-70
2023/01/18 03:04:00;;;;;;;2.60;2.40;;;;;0.40;93045.00;;;;5034284;28;20584;-70
2023/01/18 03:06:29;;;;;;;1.00;1.00;;;;;0.30;93042.00;;;;5034512;28;20239;-70
2023/01/18 03:08:58;;;;;;;1.40;1.40;;;;;0.30;93050.00;;;;5034065;28;20237;-70
2023/01/18 03:11:34;;;;;;;1.07;1.07;;;;;0.40;93056.00;;;;5033141;28;20240;-70
2023/01/18 03:14:13;;;;;;;1.13;1.13;;;;;0.40;93055.00;;;;5034118;28;20248;-70
2023/01/18 03:16:57;;;;;;;1.37;1.27;;;;;0.40;93066.00;;;;5033701;28;20615;-70
2023/01/18 03:23:36;;;;;;;0.80;0.80;;;;;0.40;93061.00;;;;5033590;28;20232;-70
2023/01/18 03:25:07;;;;;;;0.80;0.80;;;;;0.40;93066.00;;;;5033435;28;20237;-71
2023/01/18 03:35:55;;;;;;;0.80;0.80;;;;;0.30;93068.00;;;;5033357;28;20186;-72
2023/01/18 03:38:22;;;;;;;1.40;1.30;;;;;0.30;93073.00;;;;5015639;28;20205;-71
2023/01/18 03:40:50;;;;;;;0.87;0.87;;;;;0.30;93066.00;;;;5033329;28;20568;-69
2023/01/18 03:43:20;;;;;;;1.13;1.13;;;;;0.30;93069.00;;;;5033303;28;20666;-70
2023/01/18 03:45:50;;;;;;;0.93;0.93;;;;;0.20;93077.00;;;;5033362;28;20245;-71
2023/01/18 03:48:19;;;;;;;2.63;1.50;;;;;0.20;93087.00;;;;5033272;28;20194;-70
2023/01/18 03:50:51;;;;;;;0.90;0.90;;;;;0.20;93081.00;;;;5033142;28;20267;-70
2023/01/18 03:53:28;;;;;;;0.90;0.90;;;;;0.10;93090.00;;;;5033246;28;20696;-70
2023/01/18 03:56:01;;;;;;;1.00;1.00;;;;;0.10;93100.00;;;;5033172;28;20241;-70
2023/01/18 03:58:33;;;;;;;1.47;1.37;;;;;0.10;93089.00;;;;5033393;28;20189;-71
2023/01/18 04:01:02;;;;;;;1.50;1.40;;;;;0.10;93089.00;;;;5032953;28;20279;-71
2023/01/18 04:03:32;;;;;;;1.53;1.43;;;;;-0.10;93107.00;;;;5033082;28;20198;-71
2023/01/18 04:06:00;;;;;;;0.70;0.70;;;;;-0.10;93101.00;;;;5033016;28;20728;-70
2023/01/18 04:08:27;;;;;;;1.17;1.17;;;;;-0.20;93105.00;;;;5033706;28;20658;-71
2023/01/18 04:10:55;;;;;;;1.10;1.10;;;;;-0.10;93114.00;;;;5032884;28;20276;-71
2023/01/18 04:13:22;;;;;;;0.80;0.80;;;;;0.10;93118.00;;;;5033015;28;20198;-71
2023/01/18 04:15:50;;;;;;;0.90;0.90;;;;;-0.10;93127.00;;;;5015251;28;20205;-70
2023/01/18 04:18:17;;;;;;;0.80;0.80;;;;;0.00;93118.00;;;;5032969;28;20197;-70
2023/01/18 04:20:46;;;;;;;1.10;1.10;;;;;0.00;93128.00;;;;5033069;28;20231;-69
2023/01/18 04:23:13;;;;;;;1.23;1.23;;;;;-0.10;93124.00;;;;5034203;28;20219;-69
2023/01/18 04:25:44;;;;;;;1.20;1.20;;;;;-0.20;93122.00;;;;5036833;28;20205;-70
2023/01/18 04:28:11;;;;;;;1.60;1.50;;;;;-0.20;93129.00;;;;5036827;28;20185;-70
2023/01/18 04:30:39;;;;;;;0.70;0.70;;;;;-0.20;93132.00;;;;5036757;28;20210;-69
2023/01/18 04:33:06;;;;;;;1.10;1.10;;;;;-0.30;93133.00;;;;5037032;28;20196;-70
2023/01/18 04:35:35;;;;;;;1.07;1.07;;;;;-0.30;93135.00;;;;5037146;28;20201;-70
2023/01/18 04:38:03;;;;;;;1.00;1.00;;;;;-0.20;93144.00;;;;5036604;28;20671;-69
2023/01/18 04:40:31;;;;;;;1.10;1.10;;;;;-0.30;93142.00;;;;5036516;28;20219;-69
2023/01/18 04:42:58;;;;;;;0.73;0.73;;;;;-0.20;93140.00;;;;5037077;28;20189;-70
2023/01/18 04:45:25;;;;;;;0.93;0.93;;;;;-0.30;93151.00;;;;5036470;28;20659;-69
2023/01/18 04:47:53;;;;;;;1.00;1.00;;;;;-0.40;93151.00;;;;5036459;28;20193;-71
2023/01/18 04:50:20;;;;;;;1.23;1.17;;;;;-0.30;93152.00;;;;5036413;28;20217;-71
2023/01/18 04:52:47;;;;;;;1.40;1.33;;;;;-0.30;93156.00;;;;5036758;28;20280;-71
2023/01/18 04:55:16;;;;;;;0.97;0.97;;;;;-0.30;93165.00;;;;5036230;28;20251;-69
2023/01/18 04:57:44;;;;;;;1.17;1.17;;;;;-0.30;93167.00;;;;5036165;28;20193;-69
2023/01/18 05:00:14;;;;;;;0.90;0.90;;;;;-0.40;93176.00;;;;5036055;28;20214;-71
2023/01/18 05:02:41;;;;;;;0.90;0.90;;;;;-0.40;93182.00;;;;5036159;28;20270;-69
2023/01/18 05:05:09;;;;;;;1.30;1.30;;;;;-0.50;93189.00;;;;5036221;28;20643;-69
2023/01/18 05:07:37;;;;;;;0.60;0.60;;;;;-0.40;93194.00;;;;5036630;28;20196;-71
2023/01/18 05:10:04;;;;;;;0.60;0.60;;;;;-0.50;93204.00;;;;5018093;28;20224;-69
2023/01/18 05:12:33;;;;;;;0.80;0.80;;;;;-0.50;93214.00;;;;5036158;28;20585;-69
2023/01/18 05:15:00;;;;;;;0.67;0.67;;;;;-0.50;93209.00;;;;5035896;28;20691;-70
2023/01/18 05:17:29;;;;;;;1.30;1.30;;;;;-0.40;93218.00;;;;5035749;28;20247;-70
2023/01/18 05:19:56;;;;;;;0.80;0.80;;;;;-0.50;93226.00;;;;5035942;28;20219;-70
2023/01/18 05:22:24;;;;;;;0.70;0.70;;;;;-0.50;93228.00;;;;5035707;28;20216;-70
2023/01/18 05:24:52;;;;;;;1.20;1.20;;;;;-0.40;93227.00;;;;5035785;28;20196;-70
2023/01/18 05:27:19;;;;;;;1.30;1.20;;;;;-0.40;93236.00;;;;5035757;28;20562;-70
2023/01/18 05:29:49;;;;;;;0.80;0.80;;;;;-0.40;93254.00;;;;5035616;28;20262;-69
2023/01/18 05:32:17;;;;;;;0.90;0.90;;;;;-0.30;93245.00;;;;5035663;28;20185;-70
2023/01/18 05:34:45;;;;;;;1.10;1.10;;;;;-0.40;93255.00;;;;5035181;28;20213;-70
2023/01/18 05:37:12;;;;;;;1.13;1.13;;;;;-0.40;93257.00;;;;5035526;28;20199;-69
2023/01/18 05:39:39;;;;;;;0.90;0.90;;;;;-0.40;93262.00;;;;5035941;28;20200;-69
2023/01/18 05:42:07;;;;;;;0.90;0.90;;;;;-0.40;93273.00;;;;5035296;28;20219;-71
2023/01/18 05:44:34;;;;;;;1.13;1.13;;;;;-0.40;93267.00;;;;5035609;28;20555;-71
2023/01/18 05:47:03;;;;;;;1.20;1.20;;;;;-0.50;93282.00;;;;5035331;28;20193;-69
2023/01/18 05:49:30;;;;;;;0.80;0.80;;;;;-0.40;93274.00;;;;5035211;28;20201;-69
2023/01/18 05:51:58;;;;;;;0.80;0.80;;;;;-0.60;93292.00;;;;5035295;28;20193;-69
2023/01/18 05:54:25;;;;;;;1.13;1.13;;;;;-0.60;93294.00;;;;5035439;28;20196;-70
2023/01/18 05:56:52;;;;;;;1.17;1.17;;;;;-0.70;93301.00;;;;5035391;28;20607;-69
2023/01/18 05:59:20;;;;;;;1.33;1.30;;;;;-0.70;93290.00;;;;5035072;28;20205;-71
2023/01/18 06:01:47;;;;;;;1.00;1.00;;;;;-0.60;93304.00;;;;5034969;28;20221;-71
2023/01/18 06:04:16;;;;;;;0.73;0.73;;;;;-0.60;93316.00;;;;5035052;28;20197;-71
2023/01/18 06:06:43;;;;;;;1.17;1.17;;;;;-0.70;93316.00;;;;5034934;28;20196;-71
2023/01/18 06:09:11;;;;;;;0.93;0.93;;;;;-0.60;93331.00;;;;5035425;28;20204;-71
2023/01/18 06:11:38;;;;;;;0.80;0.80;;;;;-0.60;93335.00;;;;5034699;28;20216;-71
2023/01/18 06:14:05;;;;;;;1.13;1.13;;;;;-0.70;93336.00;;;;5035068;28;20197;-71
2023/01/18 06:16:33;;;;;;;1.27;1.20;;;;;-0.60;93345.00;;;;5034795;28;20244;-71
2023/01/18 06:19:00;;;;;;;1.23;1.10;;;;;-0.60;93344.00;;;;5034981;28;20197;-71
2023/01/18 06:21:29;;;;;;;1.53;1.30;;;;;-0.50;93353.00;;;;5034555;28;20220;-69
2023/01/18 06:23:56;;;;;;;1.03;1.03;;;;;-0.60;93359.00;;;;5034801;28;20196;-70
2023/01/18 06:26:23;;;;;;;0.70;0.70;;;;;-0.60;93358.00;;;;5034618;28;20197;-70
2023/01/18 06:28:51;;;;;;;0.70;0.70;;;;;-0.50;93366.00;;;;5034547;28;20222;-70
2023/01/18 06:31:18;;;;;;;1.60;1.50;;;;;-0.60;93381.00;;;;5034510;28;20271;-71
2023/01/18 06:33:46;;;;;;;1.50;1.17;;;;;-0.60;93381.00;;;;5016538;28;20334;-69
2023/01/18 06:36:13;;;;;;;1.17;1.10;;;;;-0.60;93387.00;;;;5034310;28;20200;-70
2023/01/18 06:38:42;;;;;;;1.10;1.10;;;;;-0.60;93384.00;;;;5034441;28;20247;-69
2023/01/18 06:41:10;;;;;;;1.53;1.43;;;;;-0.60;93391.00;;;;5034012;28;20683;-69
2023/01/18 06:43:37;;;;;;;0.90;0.90;;;;;-0.60;93402.00;;;;5016304;28;20204;-70
2023/01/18 06:46:08;;;;;;;1.17;1.17;;;;;-0.60;93408.00;;;;5034139;28;20201;-69
2023/01/18 06:48:35;;;;;;;0.87;0.87;;;;;-0.70;93420.00;;;;5034617;28;20255;-69
2023/01/18 06:51:02;;;;;;;1.50;1.40;;;;;-0.80;93420.00;;;;5033986;28;20212;-70
2023/01/18 06:53:30;;;;;;;1.27;1.17;;;;;-0.70;93418.00;;;;5034122;28;20255;-69
2023/01/18 06:56:01;;;;;;;0.90;0.90;;;;;-0.80;93415.00;;;;5033926;28;20241;-68
2023/01/18 06:58:31;;;;;;;1.00;1.00;;;;;-0.70;93422.00;;;;5034480;28;20303;-68
2023/01/18 07:01:00;;;;;;;8.47;1.03;;;;;-0.60;93431.00;;;;5033770;28;20219;-71
2023/01/18 07:03:29;;;;;;;1.07;1.07;;;;;-0.80;93432.00;;;;5033774;28;20213;-70
2023/01/18 07:05:58;;;;;;;1.73;1.27;;;;;-0.80;93439.00;;;;5033815;28;20196;-69
2023/01/18 07:08:27;;;;;;;2.23;1.30;;;;;-0.80;93443.00;;;;5033775;28;20272;-69
2023/01/18 07:10:54;;;;;;;1.30;1.30;;;;;-0.70;93449.00;;;;5033511;28;20216;-69
2023/01/18 07:13:24;;;;;;;1.13;1.13;;;;;-0.80;93446.00;;;;5033687;28;20196;-69
2023/01/18 07:15:57;;;;;;;1.07;1.07;;;;;-0.80;93455.00;;;;5033629;28;20211;-71
2023/01/18 07:18:24;;;;;;;1.27;1.23;;;;;-0.80;93461.00;;;;5034070;28;20204;-71
2023/01/18 07:20:57;;;;;;;0.80;0.80;;;;;-0.80;93456.00;;;;5033848;28;20302;-71
2023/01/18 07:23:25;;;;;;;0.73;0.73;;;;;-0.80;93460.00;;;;5033439;28;20679;-70
2023/01/18 07:26:02;;;;;;;1.10;1.10;;;;;-0.90;93475.00;;;;5033672;28;20541;-71
2023/01/18 07:28:32;;;;;;;1.00;1.00;;;;;-0.80;93476.00;;;;5033592;28;20212;-70
2023/01/18 07:31:00;;;;;;;1.57;1.47;;;;;-0.80;93482.00;;;;5033735;28;20709;-70
2023/01/18 07:33:28;;;;;;;4.63;1.40;;;;;-0.90;93490.00;;;;5033018;28;20193;-69
2023/01/18 07:35:57;;;;;;;0.87;0.87;;;;;-0.90;93500.00;;;;5032876;28;20283;-71
2023/01/18 07:38:25;;;;;;;1.00;1.00;;;;;-1.00;93497.00;;;;5033946;28;20197;-70
2023/01/18 07:41:00;;;;;;;0.97;0.97;;;;;-0.80;93504.00;;;;5033230;28;20238;-69
2023/01/18 07:43:30;;;;;;;5.23;1.30;;;;;-0.90;93507.00;;;;5033396;28;20379;-70
2023/01/18 07:45:58;;;;;;;1.00;1.00;;;;;-1.00;93520.00;;;;5033779;28;20189;-69
2023/01/18 07:48:25;;;;;;;1.40;1.37;;;;;-1.10;93507.00;;;;5033378;28;20203;-71
2023/01/18 07:50:54;;;;;;;0.90;0.90;;;;;-1.00;93521.00;;;;5033325;28;20219;-71
2023/01/18 07:53:22;;;;;;;0.80;0.80;;;;;-1.10;93527.00;;;;5033084;28;20235;-70
2023/01/18 07:55:50;;;;;;;1.30;1.30;;;;;-1.00;93528.00;;;;5030123;28;20200;-71
2023/01/18 07:58:18;;;;;;;0.87;0.87;;;;;-1.10;93526.00;;;;5020980;28;20269;-67
2023/01/18 08:00:47;;;;;;;0.80;0.80;;;;;-1.10;93532.00;;;;5030086;28;20246;-67
2023/01/18 08:03:16;;;;;;;1.10;1.10;;;;;-1.00;93544.00;;;;5012758;28;20334;-71
2023/01/18 08:05:45;;;;;;;1.00;1.00;;;;;-1.10;93541.00;;;;5030737;28;20265;-66
2023/01/18 08:08:14;;;;;;;1.07;1.07;;;;;-1.00;93543.00;;;;5028943;28;20211;-67
2023/01/18 08:10:42;;;;;;;1.27;1.27;;;;;-0.90;93552.00;;;;5030083;28;20232;-67
2023/01/18 08:13:10;;;;;;;1.30;1.20;;;;;-1.10;93552.00;;;;5030323;28;20195;-67
2023/01/18 08:15:38;;;;;;;1.17;1.17;;;;;-1.10;93550.00;;;;5029954;28;20208;-67
2023/01/18 08:18:08;;;;;;;0.90;0.90;;;;;-1.10;93561.00;;;;5030771;28;20204;-68
2023/01/18 08:20:36;;;;;;;0.87;0.87;;;;;-0.80;93567.00;;;;5029998;28;20699;-69
2023/01/18 08:23:03;;;;;;;1.63;1.53;;;;;-0.70;93580.00;;;;5030923;28;20331;-68
2023/01/18 08:25:32;;;;;;;1.20;1.20;;;;;-0.80;93578.00;;;;5028888;28;20196;-68
2023/01/18 08:28:00;;;;;;;0.90;0.90;;;;;-0.80;93585.00;;;;5030385;28;20279;-69
2023/01/18 08:30:30;;;;;;;1.20;1.10;;;;;-0.70;93587.00;;;;5025390;28;20224;-69
2023/01/18 08:32:59;;;;;;;1.70;1.60;;;;;-0.70;93583.00;;;;5027536;28;20193;-69
2023/01/18 08:35:30;;;;;;;0.80;0.80;;;;;-0.60;93601.00;;;;5030575;28;20208;-69
2023/01/18 08:37:59;;;;;;;1.83;1.73;;;;;-0.60;93602.00;;;;5030836;28;20220;-69
2023/01/18 08:40:28;;;;;;;1.43;1.33;;;;;-0.50;93604.00;;;;5030560;28;20225;-69
2023/01/18 08:42:57;;;;;;;0.80;0.80;;;;;-0.70;93609.00;;;;5030479;28;20221;-69
2023/01/18 08:45:26;;;;;;;1.30;1.20;;;;;-0.60;93615.00;;;;5030181;28;20259;-69
2023/01/18 08:47:57;;;;;;;1.83;1.67;;;;;-0.60;93629.00;;;;5030141;28;20687;-69
2023/01/18 08:50:25;;;;;;;0.83;0.83;;;;;-0.50;93628.00;;;;5030043;28;20221;-68
2023/01/18 08:52:54;;;;;;;1.00;1.00;;;;;-0.40;93641.00;;;;5030127;28;20196;-69
2023/01/18 08:55:22;;;;;;;1.40;1.40;;;;;-0.30;93644.00;;;;5029959;28;20209;-69
2023/01/18 08:57:53;;;;;;;1.70;1.60;;;;;-0.40;93644.00;;;;5030000;28;20273;-69
2023/01/18 09:00:22;;;;;;;1.00;1.00;;;;;-0.30;93633.00;;;;5028965;28;20213;-68
2023/01/18 09:02:50;;;;;;;1.10;1.10;;;;;-0.30;93639.00;;;;5012239;28;20244;-69
2023/01/18 09:05:17;;;;;;;1.10;1.10;;;;;-0.20;93651.00;;;;5030049;28;20193;-69
2023/01/18 09:07:46;;;;;;;1.40;1.30;;;;;-0.40;93645.00;;;;5029940;28;20224;-69
2023/01/18 09:10:15;;;;;;;0.90;0.90;;;;;-0.30;93659.00;;;;5030770;28;20311;-69
2023/01/18 09:12:42;;;;;;;0.70;0.70;;;;;-0.40;93663.00;;;;5033535;28;20201;-69
2023/01/18 09:15:10;;;;;;;0.80;0.80;;;;;-0.30;93665.00;;;;5033502;28;20204;-68
2023/01/18 09:17:38;;;;;;;1.00;1.00;;;;;-0.50;93680.00;;;;5032246;28;20675;-68
2023/01/18 09:20:08;;;;;;;0.90;0.90;;;;;-0.60;93676.00;;;;5032754;28;20220;-69
2023/01/18 09:22:36;;;;;;;0.93;0.93;;;;;-0.50;93672.00;;;;5033423;28;20217;-69
2023/01/18 09:25:04;;;;;;;0.67;0.67;;;;;-0.50;93679.00;;;;5032363;28;20224;-70
2023/01/18 09:27:33;;;;;;;1.17;1.17;;;;;-0.30;93691.00;;;;5033687;28;20204;-69
2023/01/18 09:30:00;;;;;;;1.30;1.17;;;;;-0.20;93699.00;;;;5032842;28;20227;-68
2023/01/18 09:32:29;;;;;;;0.80;0.80;;;;;-0.30;93703.00;;;;5033632;28;20251;-68
2023/01/18 09:34:56;;;;;;;0.90;0.90;;;;;-0.20;93719.00;;;;5032791;28;20201;-70
2023/01/18 09:37:24;;;;;;;0.80;0.80;;;;;-0.20;93722.00;;;;5033047;28;20667;-68
2023/01/18 09:39:51;;;;;;;2.43;1.00;;;;;0.00;93729.00;;;;5032617;28;20212;-67
2023/01/18 09:42:21;;;;;;;1.33;1.33;;;;;0.20;93719.00;;;;5033324;28;20208;-69
2023/01/18 09:44:52;;;;;;;1.57;1.47;;;;;0.20;93724.00;;;;5033012;28;20201;-68
2023/01/18 09:47:23;;;;;;;0.70;0.70;;;;;0.10;93728.00;;;;5033219;28;20192;-69
2023/01/18 09:49:55;;;;;;;0.90;0.90;;;;;0.00;93738.00;;;;5032457;28;20228;-69
2023/01/18 09:52:33;;;;;;;0.90;0.90;;;;;0.00;93736.00;;;;5029334;28;20502;-68
2023/01/18 09:55:12;;;;;;;0.87;0.87;;;;;-0.10;93749.00;;;;5031977;28;20200;-68
2023/01/18 09:57:50;;;;;;;0.90;0.90;;;;;0.20;93754.00;;;;5033118;28;20185;-68
2023/01/18 10:00:23;;;;;;;2.17;1.43;;;;;0.20;93752.00;;;;5032606;28;20699;-68
2023/01/18 10:02:54;;;;;;;1.03;1.03;;;;;0.40;93751.00;;;;5033080;28;20228;-69
2023/01/18 10:05:26;;;;;;;1.40;1.30;;;;;0.50;93752.00;;;;5014998;28;20189;-69
2023/01/18 10:08:06;;;;;;;1.00;1.00;;;;;0.40;93749.00;;;;5032998;28;20204;-69
2023/01/18 10:10:38;;;;;;;1.10;1.10;;;;;0.50;93751.00;;;;5032496;28;20233;-71
2023/01/18 10:13:23;;;;;;;1.20;1.20;;;;;0.50;93758.00;;;;5032215;28;21060;-69
2023/01/18 10:15:52;;;;;;;0.80;0.80;;;;;0.50;93764.00;;;;5032982;28;20201;-68
2023/01/18 10:18:19;;;;;;;1.13;1.13;;;;;0.60;93756.00;;;;5031613;28;20871;-68
2023/01/18 10:20:51;;;;;;;1.07;1.07;;;;;0.40;93768.00;;;;5027041;28;20214;-69
2023/01/18 10:23:24;;;;;;;1.17;1.17;;;;;0.50;93765.00;;;;5032779;28;20881;-68
2023/01/18 10:25:55;;;;;;;2.97;1.23;;;;;0.60;93775.00;;;;5031954;28;20207;-69
2023/01/18 10:28:33;;;;;;;0.90;0.90;;;;;0.70;93776.00;;;;5031991;28;20189;-69
2023/01/18 10:31:15;;;;;;;1.37;1.27;;;;;0.60;93785.00;;;;5031423;28;20225;-69
2023/01/18 10:33:44;;;;;;;0.90;0.90;;;;;0.60;93792.00;;;;5032193;28;20185;-70
2023/01/18 10:36:16;;;;;;;0.90;0.90;;;;;0.50;93794.00;;;;5032203;28;20201;-69
2023/01/18 10:38:45;;;;;;;1.40;1.30;;;;;0.50;93790.00;;;;5014303;28;20589;-67
2023/01/18 10:41:19;;;;;;;1.00;1.00;;;;;0.30;93796.00;;;;5031867;28;20696;-67
2023/01/18 10:43:47;;;;;;;1.20;1.20;;;;;0.20;93799.00;;;;5028940;28;20219;-68
2023/01/18 10:46:18;;;;;;;1.27;1.17;;;;;0.20;93803.00;;;;5022542;28;20200;-69
2023/01/18 10:48:47;;;;;;;1.93;1.83;;;;;0.50;93805.00;;;;5031883;28;20202;-68
2023/01/18 10:51:31;;;;;;;1.10;1.10;;;;;0.50;93801.00;;;;5031758;28;20219;-69
2023/01/18 10:53:59;;;;;;;1.13;1.13;;;;;0.70;93799.00;;;;5032098;28;20276;-68
2023/01/18 10:56:28;;;;;;;1.17;1.17;;;;;0.70;93806.00;;;;5027423;28;20264;-68
2023/01/18 10:58:58;;;;;;;1.57;1.47;;;;;0.80;93814.00;;;;5031557;28;20667;-69
2023/01/18 11:01:29;;;;;;;0.83;0.83;;;;;0.90;93808.00;;;;5031193;28;20222;-69
2023/01/18 11:04:04;;;;;;;1.00;1.00;;;;;1.00;93812.00;;;;5031544;28;20210;-68
2023/01/18 11:06:44;;;;;;;1.57;1.47;;;;;1.30;93806.00;;;;5030476;28;20191;-68
2023/01/18 11:09:40;;;;;;;0.83;0.83;;;;;1.00;93811.00;;;;5031595;28;20282;-68
2023/01/18 11:12:36;;;;;;;1.13;1.03;;;;;0.80;93814.00;;;;5031706;28;20750;-68
2023/01/18 11:15:30;;;;;;;1.13;1.13;;;;;0.70;93808.00;;;;5027732;28;20703;-68
2023/01/18 11:18:05;;;;;;;1.17;1.17;;;;;0.80;93822.00;;;;5030636;28;20185;-67
2023/01/18 11:20:36;;;;;;;0.70;0.70;;;;;0.60;93818.00;;;;5030794;28;20221;-67
2023/01/18 11:23:06;;;;;;;1.10;1.00;;;;;0.80;93829.00;;;;5014185;28;20227;-67
2023/01/18 11:25:38;;;;;;;0.90;0.90;;;;;0.80;93836.00;;;;5031206;28;20200;-67
2023/01/18 11:28:13;;;;;;;1.40;1.03;;;;;0.60;93833.00;;;;5031176;28;20197;-68
2023/01/18 11:30:50;;;;;;;1.80;1.37;;;;;0.70;93837.00;;;;5031339;28;20572;-69
2023/01/18 11:33:21;;;;;;;0.80;0.80;;;;;1.00;93830.00;;;;5030510;28;20193;-69
2023/01/18 11:35:57;;;;;;;1.30;1.30;;;;;1.20;93847.00;;;;5031469;28;20206;-68
2023/01/18 11:38:30;;;;;;;0.80;0.80;;;;;1.40;93859.00;;;;5030212;28;20243;-68
2023/01/18 11:41:05;;;;;;;2.57;2.37;;;;;1.30;93851.00;;;;5030883;28;20213;-69
2023/01/18 11:43:35;;;;;;;1.73;1.63;;;;;1.00;93858.00;;;;5030879;28;20204;-68
2023/01/18 11:46:13;;;;;;;1.10;1.10;;;;;1.00;93855.00;;;;5030921;28;20589;-68
2023/01/18 11:48:49;;;;;;;1.00;1.00;;;;;0.90;93870.00;;;;5030796;28;20189;-68
2023/01/18 11:51:23;;;;;;;1.33;1.20;;;;;0.70;93861.00;;;;5030742;28;20221;-68
2023/01/18 11:53:58;;;;;;;0.90;0.90;;;;;0.90;93872.00;;;;5013520;28;20223;-68
2023/01/18 11:56:32;;;;;;;0.60;0.60;;;;;1.20;93872.00;;;;5030782;28;20624;-67
2023/01/18 11:59:01;;;;;;;5.63;1.57;;;;;1.10;93871.00;;;;5030742;28;20644;-67
2023/01/18 12:01:59;;;;;;;1.00;1.00;;;;;1.00;93878.00;;;;5030267;28;20249;-69
2023/01/18 12:04:44;;;;;;;0.70;0.70;;;;;1.10;93878.00;;;;5030643;28;20206;-68
2023/01/18 12:07:28;;;;;;;0.60;0.60;;;;;1.30;93881.00;;;;5030727;28;20284;-68
2023/01/18 12:09:57;;;;;;;0.70;0.70;;;;;0.80;93889.00;;;;5030444;28;20757;-68
2023/01/18 12:12:41;;;;;;;1.07;1.07;;;;;0.90;93879.00;;;;5012922;28;20652;-69
2023/01/18 12:15:24;;;;;;;0.80;0.80;;;;;1.20;93897.00;;;;5030579;28;20671;-68
2023/01/18 12:18:07;;;;;;;0.93;0.93;;;;;1.10;93892.00;;;;5030746;28;20198;-68
2023/01/18 12:20:45;;;;;;;2.53;2.10;;;;;1.40;93903.00;;;;5030407;28;20218;-68
2023/01/18 12:23:52;;;;;;;0.80;0.80;;;;;1.10;93901.00;;;;5030478;28;20193;-68
2023/01/18 12:26:34;;;;;;;0.70;0.70;;;;;0.70;93913.00;;;;5020980;28;20200;-68
2023/01/18 12:29:23;;;;;;;0.87;0.87;;;;;0.70;93924.00;;;;5030889;28;20248;-68
2023/01/18 12:32:02;;;;;;;0.60;0.60;;;;;0.40;93930.00;;;;5029125;28;20244;-68
2023/01/18 12:34:40;;;;;;;0.90;0.90;;;;;0.50;93925.00;;;;5029700;28;20190;-68
2023/01/18 12:37:23;;;;;;;1.23;1.23;;;;;0.80;93925.00;;;;5030061;28;20616;-68
2023/01/18 12:40:06;;;;;;;1.03;1.03;;;;;0.80;93923.00;;;;5031020;28;20223;-68
2023/01/18 12:42:48;;;;;;;0.90;0.90;;;;;1.10;93926.00;;;;5030015;28;20197;-69
2023/01/18 12:45:27;;;;;;;1.20;1.20;;;;;1.10;93906.00;;;;5033399;28;20212;-67
2023/01/18 12:48:04;;;;;;;1.00;1.00;;;;;1.20;93926.00;;;;5033732;28;20193;-67
2023/01/18 12:50:35;;;;;;;1.23;1.23;;;;;1.30;93942.00;;;;5034359;28;20228;-67
2023/01/18 12:53:10;;;;;;;1.03;0.90;;;;;1.20;93933.00;;;;5033781;28;20276;-68
2023/01/18 12:55:40;;;;;;;0.90;0.90;;;;;1.40;93943.00;;;;5032938;28;20262;-69
2023/01/18 12:58:14;;;;;;;1.00;1.00;;;;;1.50;93942.00;;;;5033227;28;20194;-71
2023/01/18 13:00:48;;;;;;;0.87;0.87;;;;;1.70;93947.00;;;;5016701;28;20632;-70
2023/01/18 13:03:20;;;;;;;1.00;1.00;;;;;1.70;93949.00;;;;5034052;28;20188;-70
2023/01/18 13:05:55;;;;;;;1.40;1.03;;;;;1.70;93948.00;;;;5033971;28;20527;-70
2023/01/18 13:08:38;;;;;;;0.80;0.80;;;;;1.70;93956.00;;;;5033981;28;20191;-71
2023/01/18 13:11:12;;;;;;;0.70;0.70;;;;;1.80;93962.00;;;;5033628;28;20261;-71
2023/01/18 13:13:43;;;;;;;2.00;1.67;;;;;2.10;93959.00;;;;5033716;28;20186;-70
2023/01/18 13:16:36;;;;;;;0.80;0.80;;;;;1.90;93967.00;;;;5034175;28;20201;-71
2023/01/18 13:19:06;;;;;;;0.80;0.80;;;;;1.70;93975.00;;;;5033160;28;20202;-71